sensor_id;sensor_type;location;lat;lon;timestamp;P1;durP1;ratioP1;P2;durP2;ratioP2
8857;SDS011;4465;50.904;4.696;2022-07-29T00:02:26;6.65;;;1.85;;
8857;SDS011;4465;50.904;4.696;2022-07-29T00:04:53;4.15;;;1.85;;
8857;SDS011;4465;50.904;4.696;2022-07-29T00:07:18;3.90;;;1.67;;
8857;SDS011;4465;50.904;4.696;2022-07-29T00:09:47;4.45;;;1.80;;
8857;SDS011;4465;50.904;4.696;2022-07-29T00:12:13;2.85;;;1.48;;
8857;SDS011;4465;50.904;4.696;2022-07-29T00:14:39;2.85;;;1.42;;
8857;SDS011;4465;50.904;4.696;2022-07-29T00:17:05;3.28;;;1.67;;
8857;SDS011;4465;50.904;4.696;2022-07-29T00:19:31;3.78;;;1.65;;
8857;SDS011;4465;50.904;4.696;2022-07-29T00:22:00;3.95;;;1.75;;
8857;SDS011;4465;50.904;4.696;2022-07-29T00:24:29;3.60;;;1.75;;
8857;SDS011;4465;50.904;4.696;2022-07-29T00:26:54;7.25;;;1.60;;
8857;SDS011;4465;50.904;4.696;2022-07-29T00:29:20;4.47;;;1.85;;
8857;SDS011;4465;50.904;4.696;2022-07-29T00:31:46;6.40;;;1.92;;
8857;SDS011;4465;50.904;4.696;2022-07-29T00:34:12;3.72;;;1.80;;
8857;SDS011;4465;50.904;4.696;2022-07-29T00:36:57;4.88;;;2.05;;
8857;SDS011;4465;50.904;4.696;2022-07-29T00:39:26;4.63;;;1.88;;
8857;SDS011;4465;50.904;4.696;2022-07-29T00:41:52;3.75;;;1.83;;
8857;SDS011;4465;50.904;4.696;2022-07-29T00:44:18;6.65;;;2.05;;
8857;SDS011;4465;50.904;4.696;2022-07-29T00:46:46;3.17;;;1.70;;
8857;SDS011;4465;50.904;4.696;2022-07-29T00:49:12;9.48;;;2.38;;
8857;SDS011;4465;50.904;4.696;2022-07-29T00:51:38;7.22;;;1.88;;
8857;SDS011;4465;50.904;4.696;2022-07-29T00:54:07;4.75;;;1.83;;
8857;SDS011;4465;50.904;4.696;2022-07-29T00:56:33;4.88;;;2.17;;
8857;SDS011;4465;50.904;4.696;2022-07-29T00:58:59;4.15;;;2.13;;
8857;SDS011;4465;50.904;4.696;2022-07-29T01:01:26;9.00;;;1.95;;
8857;SDS011;4465;50.904;4.696;2022-07-29T01:03:54;3.50;;;2.08;;
8857;SDS011;4465;50.904;4.696;2022-07-29T01:06:21;4.00;;;1.73;;
8857;SDS011;4465;50.904;4.696;2022-07-29T01:08:47;6.35;;;1.90;;
8857;SDS011;4465;50.904;4.696;2022-07-29T01:11:16;4.78;;;1.73;;
8857;SDS011;4465;50.904;4.696;2022-07-29T01:13:48;6.90;;;2.13;;
8857;SDS011;4465;50.904;4.696;2022-07-29T01:16:20;4.88;;;1.90;;
8857;SDS011;4465;50.904;4.696;2022-07-29T01:18:52;15.07;;;2.80;;
8857;SDS011;4465;50.904;4.696;2022-07-29T01:26:58;7.65;;;2.28;;
8857;SDS011;4465;50.904;4.696;2022-07-29T01:29:30;4.43;;;2.45;;
8857;SDS011;4465;50.904;4.696;2022-07-29T01:32:03;3.15;;;2.05;;
8857;SDS011;4465;50.904;4.696;2022-07-29T01:34:45;8.02;;;2.55;;
8857;SDS011;4465;50.904;4.696;2022-07-29T01:40:11;5.20;;;1.90;;
8857;SDS011;4465;50.904;4.696;2022-07-29T01:45:36;7.47;;;2.53;;
8857;SDS011;4465;50.904;4.696;2022-07-29T01:48:37;4.45;;;2.00;;
8857;SDS011;4465;50.904;4.696;2022-07-29T01:51:07;7.22;;;1.92;;
8857;SDS011;4465;50.904;4.696;2022-07-29T01:53:46;7.85;;;2.20;;
8857;SDS011;4465;50.904;4.696;2022-07-29T01:56:17;5.22;;;1.77;;
8857;SDS011;4465;50.904;4.696;2022-07-29T01:58:45;8.32;;;2.20;;
8857;SDS011;4465;50.904;4.696;2022-07-29T02:01:15;3.55;;;2.13;;
8857;SDS011;4465;50.904;4.696;2022-07-29T02:06:09;5.28;;;2.40;;
8857;SDS011;4465;50.904;4.696;2022-07-29T02:08:42;6.05;;;2.58;;
8857;SDS011;4465;50.904;4.696;2022-07-29T02:11:12;5.15;;;2.40;;
8857;SDS011;4465;50.904;4.696;2022-07-29T02:13:41;4.55;;;2.20;;
8857;SDS011;4465;50.904;4.696;2022-07-29T02:16:09;6.30;;;2.53;;
8857;SDS011;4465;50.904;4.696;2022-07-29T02:21:04;5.65;;;2.35;;
8857;SDS011;4465;50.904;4.696;2022-07-29T02:23:31;3.97;;;2.20;;
8857;SDS011;4465;50.904;4.696;2022-07-29T02:26:00;5.68;;;2.42;;
8857;SDS011;4465;50.904;4.696;2022-07-29T02:28:28;4.88;;;2.70;;
8857;SDS011;4465;50.904;4.696;2022-07-29T02:30:58;9.13;;;2.92;;
8857;SDS011;4465;50.904;4.696;2022-07-29T02:33:26;4.47;;;2.20;;
8857;SDS011;4465;50.904;4.696;2022-07-29T02:35:55;7.80;;;2.10;;
8857;SDS011;4465;50.904;4.696;2022-07-29T02:38:23;4.00;;;2.20;;
8857;SDS011;4465;50.904;4.696;2022-07-29T02:41:10;4.47;;;2.28;;
8857;SDS011;4465;50.904;4.696;2022-07-29T02:43:39;8.70;;;2.55;;
8857;SDS011;4465;50.904;4.696;2022-07-29T02:46:11;5.72;;;2.55;;
8857;SDS011;4465;50.904;4.696;2022-07-29T02:48:46;4.30;;;2.20;;
8857;SDS011;4465;50.904;4.696;2022-07-29T02:51:18;5.57;;;2.78;;
8857;SDS011;4465;50.904;4.696;2022-07-29T02:53:50;5.22;;;2.42;;
8857;SDS011;4465;50.904;4.696;2022-07-29T02:56:23;4.60;;;2.22;;
8857;SDS011;4465;50.904;4.696;2022-07-29T02:58:57;5.10;;;2.35;;
8857;SDS011;4465;50.904;4.696;2022-07-29T03:01:27;8.77;;;2.35;;
8857;SDS011;4465;50.904;4.696;2022-07-29T03:03:57;5.07;;;2.22;;
8857;SDS011;4465;50.904;4.696;2022-07-29T03:06:26;7.70;;;2.50;;
8857;SDS011;4465;50.904;4.696;2022-07-29T03:08:54;5.43;;;2.15;;
8857;SDS011;4465;50.904;4.696;2022-07-29T03:11:23;7.32;;;2.58;;
8857;SDS011;4465;50.904;4.696;2022-07-29T03:13:49;5.22;;;2.30;;
8857;SDS011;4465;50.904;4.696;2022-07-29T03:16:16;5.95;;;2.50;;
8857;SDS011;4465;50.904;4.696;2022-07-29T03:18:44;8.57;;;2.40;;
8857;SDS011;4465;50.904;4.696;2022-07-29T03:21:12;5.85;;;2.60;;
8857;SDS011;4465;50.904;4.696;2022-07-29T03:23:38;6.32;;;2.75;;
8857;SDS011;4465;50.904;4.696;2022-07-29T03:26:09;4.03;;;2.38;;
8857;SDS011;4465;50.904;4.696;2022-07-29T03:28:36;8.53;;;2.43;;
8857;SDS011;4465;50.904;4.696;2022-07-29T03:31:03;8.05;;;2.50;;
8857;SDS011;4465;50.904;4.696;2022-07-29T03:33:29;5.30;;;2.40;;
8857;SDS011;4465;50.904;4.696;2022-07-29T03:35:55;3.60;;;2.20;;
8857;SDS011;4465;50.904;4.696;2022-07-29T03:38:25;6.38;;;2.40;;
8857;SDS011;4465;50.904;4.696;2022-07-29T03:40:58;5.53;;;3.00;;
8857;SDS011;4465;50.904;4.696;2022-07-29T03:43:29;4.57;;;2.65;;
8857;SDS011;4465;50.904;4.696;2022-07-29T03:45:58;5.78;;;2.55;;
8857;SDS011;4465;50.904;4.696;2022-07-29T03:48:26;10.02;;;2.42;;
8857;SDS011;4465;50.904;4.696;2022-07-29T03:50:55;9.73;;;2.72;;
8857;SDS011;4465;50.904;4.696;2022-07-29T03:53:22;7.47;;;2.38;;
8857;SDS011;4465;50.904;4.696;2022-07-29T03:55:50;5.07;;;2.63;;
8857;SDS011;4465;50.904;4.696;2022-07-29T03:58:19;5.05;;;2.50;;
8857;SDS011;4465;50.904;4.696;2022-07-29T04:00:47;6.70;;;2.33;;
8857;SDS011;4465;50.904;4.696;2022-07-29T04:03:14;5.30;;;2.65;;
8857;SDS011;4465;50.904;4.696;2022-07-29T04:05:40;7.47;;;2.88;;
8857;SDS011;4465;50.904;4.696;2022-07-29T04:08:06;4.43;;;2.30;;
8857;SDS011;4465;50.904;4.696;2022-07-29T04:10:33;5.88;;;2.75;;
8857;SDS011;4465;50.904;4.696;2022-07-29T04:12:59;8.02;;;3.10;;
8857;SDS011;4465;50.904;4.696;2022-07-29T04:15:25;6.10;;;2.80;;
8857;SDS011;4465;50.904;4.696;2022-07-29T04:17:54;4.43;;;2.50;;
8857;SDS011;4465;50.904;4.696;2022-07-29T04:20:23;6.20;;;2.75;;
8857;SDS011;4465;50.904;4.696;2022-07-29T04:22:49;8.43;;;2.47;;
8857;SDS011;4465;50.904;4.696;2022-07-29T04:25:15;7.22;;;3.10;;
8857;SDS011;4465;50.904;4.696;2022-07-29T04:27:41;6.28;;;2.90;;
8857;SDS011;4465;50.904;4.696;2022-07-29T04:30:25;5.03;;;3.00;;
8857;SDS011;4465;50.904;4.696;2022-07-29T04:32:57;7.65;;;2.80;;
8857;SDS011;4465;50.904;4.696;2022-07-29T04:35:23;7.70;;;2.65;;
8857;SDS011;4465;50.904;4.696;2022-07-29T04:37:49;4.40;;;2.33;;
8857;SDS011;4465;50.904;4.696;2022-07-29T04:40:15;8.60;;;2.90;;
8857;SDS011;4465;50.904;4.696;2022-07-29T04:42:41;9.55;;;3.33;;
8857;SDS011;4465;50.904;4.696;2022-07-29T04:45:08;15.55;;;3.28;;
8857;SDS011;4465;50.904;4.696;2022-07-29T04:47:34;11.67;;;2.93;;
8857;SDS011;4465;50.904;4.696;2022-07-29T04:50:00;7.07;;;2.83;;
8857;SDS011;4465;50.904;4.696;2022-07-29T04:52:27;7.90;;;2.97;;
8857;SDS011;4465;50.904;4.696;2022-07-29T04:54:56;8.25;;;2.90;;
8857;SDS011;4465;50.904;4.696;2022-07-29T04:57:22;8.23;;;3.10;;
8857;SDS011;4465;50.904;4.696;2022-07-29T04:59:50;9.70;;;3.20;;
8857;SDS011;4465;50.904;4.696;2022-07-29T05:02:16;5.07;;;3.10;;
8857;SDS011;4465;50.904;4.696;2022-07-29T05:04:42;7.75;;;3.30;;
8857;SDS011;4465;50.904;4.696;2022-07-29T05:07:08;9.07;;;3.10;;
8857;SDS011;4465;50.904;4.696;2022-07-29T05:09:35;8.93;;;3.35;;
8857;SDS011;4465;50.904;4.696;2022-07-29T05:12:03;10.45;;;3.85;;
8857;SDS011;4465;50.904;4.696;2022-07-29T05:14:30;10.80;;;3.15;;
8857;SDS011;4465;50.904;4.696;2022-07-29T05:16:58;9.25;;;4.10;;
8857;SDS011;4465;50.904;4.696;2022-07-29T05:19:25;8.98;;;3.55;;
8857;SDS011;4465;50.904;4.696;2022-07-29T05:21:50;7.97;;;3.42;;
8857;SDS011;4465;50.904;4.696;2022-07-29T05:24:17;9.00;;;3.50;;
8857;SDS011;4465;50.904;4.696;2022-07-29T05:26:45;8.38;;;3.00;;
8857;SDS011;4465;50.904;4.696;2022-07-29T05:29:12;6.25;;;3.17;;
8857;SDS011;4465;50.904;4.696;2022-07-29T05:31:40;6.18;;;3.33;;
8857;SDS011;4465;50.904;4.696;2022-07-29T05:34:09;6.07;;;3.35;;
8857;SDS011;4465;50.904;4.696;2022-07-29T05:36:35;7.13;;;3.88;;
8857;SDS011;4465;50.904;4.696;2022-07-29T05:39:03;10.18;;;3.60;;
8857;SDS011;4465;50.904;4.696;2022-07-29T05:41:33;6.97;;;3.45;;
8857;SDS011;4465;50.904;4.696;2022-07-29T05:43:59;6.65;;;3.63;;
8857;SDS011;4465;50.904;4.696;2022-07-29T05:46:27;8.07;;;3.55;;
8857;SDS011;4465;50.904;4.696;2022-07-29T05:48:56;9.48;;;3.50;;
8857;SDS011;4465;50.904;4.696;2022-07-29T05:51:22;8.05;;;3.70;;
8857;SDS011;4465;50.904;4.696;2022-07-29T05:53:53;7.15;;;3.55;;
8857;SDS011;4465;50.904;4.696;2022-07-29T05:56:21;6.57;;;3.55;;
8857;SDS011;4465;50.904;4.696;2022-07-29T05:58:47;10.00;;;3.70;;
8857;SDS011;4465;50.904;4.696;2022-07-29T06:01:13;7.07;;;3.75;;
8857;SDS011;4465;50.904;4.696;2022-07-29T06:03:39;8.52;;;3.50;;
8857;SDS011;4465;50.904;4.696;2022-07-29T06:06:06;8.10;;;3.58;;
8857;SDS011;4465;50.904;4.696;2022-07-29T06:08:33;7.55;;;4.00;;
8857;SDS011;4465;50.904;4.696;2022-07-29T06:10:59;6.03;;;3.33;;
8857;SDS011;4465;50.904;4.696;2022-07-29T06:13:26;6.95;;;3.95;;
8857;SDS011;4465;50.904;4.696;2022-07-29T06:15:53;6.70;;;3.42;;
8857;SDS011;4465;50.904;4.696;2022-07-29T06:18:19;8.10;;;3.63;;
8857;SDS011;4465;50.904;4.696;2022-07-29T06:20:46;6.63;;;3.70;;
8857;SDS011;4465;50.904;4.696;2022-07-29T06:23:12;9.10;;;3.80;;
8857;SDS011;4465;50.904;4.696;2022-07-29T06:25:40;5.90;;;3.42;;
8857;SDS011;4465;50.904;4.696;2022-07-29T06:28:07;7.18;;;3.30;;
8857;SDS011;4465;50.904;4.696;2022-07-29T06:30:35;5.13;;;3.70;;
8857;SDS011;4465;50.904;4.696;2022-07-29T06:33:01;10.75;;;3.42;;
8857;SDS011;4465;50.904;4.696;2022-07-29T06:35:28;8.63;;;3.75;;
8857;SDS011;4465;50.904;4.696;2022-07-29T06:37:54;8.55;;;3.65;;
8857;SDS011;4465;50.904;4.696;2022-07-29T06:40:20;9.32;;;4.00;;
8857;SDS011;4465;50.904;4.696;2022-07-29T06:43:05;10.55;;;3.42;;
8857;SDS011;4465;50.904;4.696;2022-07-29T06:45:34;7.57;;;3.35;;
8857;SDS011;4465;50.904;4.696;2022-07-29T06:48:00;6.65;;;3.35;;
8857;SDS011;4465;50.904;4.696;2022-07-29T06:50:26;8.00;;;3.28;;
8857;SDS011;4465;50.904;4.696;2022-07-29T06:52:52;8.88;;;3.80;;
8857;SDS011;4465;50.904;4.696;2022-07-29T06:55:18;5.32;;;3.05;;
8857;SDS011;4465;50.904;4.696;2022-07-29T06:57:47;8.15;;;3.22;;
8857;SDS011;4465;50.904;4.696;2022-07-29T07:00:13;9.52;;;3.35;;
8857;SDS011;4465;50.904;4.696;2022-07-29T07:02:40;7.53;;;3.33;;
8857;SDS011;4465;50.904;4.696;2022-07-29T07:05:06;10.50;;;3.35;;
8857;SDS011;4465;50.904;4.696;2022-07-29T07:07:32;6.57;;;3.53;;
8857;SDS011;4465;50.904;4.696;2022-07-29T07:09:59;9.45;;;3.67;;
8857;SDS011;4465;50.904;4.696;2022-07-29T07:12:25;6.90;;;3.38;;
8857;SDS011;4465;50.904;4.696;2022-07-29T07:14:51;6.43;;;3.22;;
8857;SDS011;4465;50.904;4.696;2022-07-29T07:17:17;5.10;;;3.10;;
8857;SDS011;4465;50.904;4.696;2022-07-29T07:19:43;11.18;;;3.90;;
8857;SDS011;4465;50.904;4.696;2022-07-29T07:22:10;6.30;;;3.27;;
8857;SDS011;4465;50.904;4.696;2022-07-29T07:24:36;6.13;;;3.55;;
8857;SDS011;4465;50.904;4.696;2022-07-29T07:27:03;7.05;;;3.40;;
8857;SDS011;4465;50.904;4.696;2022-07-29T07:29:32;6.35;;;3.33;;
8857;SDS011;4465;50.904;4.696;2022-07-29T07:31:58;5.03;;;3.13;;
8857;SDS011;4465;50.904;4.696;2022-07-29T07:34:24;10.60;;;3.92;;
8857;SDS011;4465;50.904;4.696;2022-07-29T07:36:50;4.82;;;3.28;;
8857;SDS011;4465;50.904;4.696;2022-07-29T07:39:16;6.90;;;3.53;;
8857;SDS011;4465;50.904;4.696;2022-07-29T07:41:42;5.78;;;3.40;;
8857;SDS011;4465;50.904;4.696;2022-07-29T07:44:08;7.70;;;3.53;;
8857;SDS011;4465;50.904;4.696;2022-07-29T07:46:34;7.70;;;4.07;;
8857;SDS011;4465;50.904;4.696;2022-07-29T07:49:01;6.45;;;3.45;;
8857;SDS011;4465;50.904;4.696;2022-07-29T07:51:27;5.30;;;3.10;;
8857;SDS011;4465;50.904;4.696;2022-07-29T07:53:56;7.30;;;3.45;;
8857;SDS011;4465;50.904;4.696;2022-07-29T07:56:24;4.88;;;2.90;;
8857;SDS011;4465;50.904;4.696;2022-07-29T07:58:51;5.60;;;3.35;;
8857;SDS011;4465;50.904;4.696;2022-07-29T08:01:19;7.40;;;3.70;;
8857;SDS011;4465;50.904;4.696;2022-07-29T08:03:49;4.90;;;3.40;;
8857;SDS011;4465;50.904;4.696;2022-07-29T08:06:15;5.35;;;3.50;;
8857;SDS011;4465;50.904;4.696;2022-07-29T08:08:41;5.95;;;3.13;;
8857;SDS011;4465;50.904;4.696;2022-07-29T08:11:09;7.88;;;3.22;;
8857;SDS011;4465;50.904;4.696;2022-07-29T08:13:39;5.57;;;3.30;;
8857;SDS011;4465;50.904;4.696;2022-07-29T08:18:39;7.03;;;3.05;;
8857;SDS011;4465;50.904;4.696;2022-07-29T08:23:31;6.07;;;2.95;;
8857;SDS011;4465;50.904;4.696;2022-07-29T08:26:08;5.55;;;3.00;;
8857;SDS011;4465;50.904;4.696;2022-07-29T08:28:38;7.43;;;2.65;;
8857;SDS011;4465;50.904;4.696;2022-07-29T08:31:12;6.32;;;3.40;;
8857;SDS011;4465;50.904;4.696;2022-07-29T08:33:39;6.18;;;2.72;;
8857;SDS011;4465;50.904;4.696;2022-07-29T08:36:05;6.38;;;3.15;;
8857;SDS011;4465;50.904;4.696;2022-07-29T08:38:32;6.75;;;2.75;;
8857;SDS011;4465;50.904;4.696;2022-07-29T08:41:01;4.63;;;2.67;;
8857;SDS011;4465;50.904;4.696;2022-07-29T08:43:30;5.03;;;2.53;;
8857;SDS011;4465;50.904;4.696;2022-07-29T08:45:57;6.30;;;2.80;;
8857;SDS011;4465;50.904;4.696;2022-07-29T08:48:23;8.95;;;2.50;;
8857;SDS011;4465;50.904;4.696;2022-07-29T08:50:52;6.50;;;2.67;;
8857;SDS011;4465;50.904;4.696;2022-07-29T08:53:21;5.95;;;2.22;;
8857;SDS011;4465;50.904;4.696;2022-07-29T08:55:49;9.57;;;3.00;;
8857;SDS011;4465;50.904;4.696;2022-07-29T08:58:16;4.47;;;2.47;;
8857;SDS011;4465;50.904;4.696;2022-07-29T09:00:47;5.80;;;2.60;;
8857;SDS011;4465;50.904;4.696;2022-07-29T09:03:18;3.90;;;2.60;;
8857;SDS011;4465;50.904;4.696;2022-07-29T09:05:46;3.35;;;2.22;;
8857;SDS011;4465;50.904;4.696;2022-07-29T09:08:13;5.45;;;2.15;;
8857;SDS011;4465;50.904;4.696;2022-07-29T09:10:41;6.75;;;2.42;;
8857;SDS011;4465;50.904;4.696;2022-07-29T09:13:10;7.22;;;2.60;;
8857;SDS011;4465;50.904;4.696;2022-07-29T09:15:36;4.82;;;2.83;;
8857;SDS011;4465;50.904;4.696;2022-07-29T09:18:04;5.57;;;1.98;;
8857;SDS011;4465;50.904;4.696;2022-07-29T09:20:31;5.75;;;2.10;;
8857;SDS011;4465;50.904;4.696;2022-07-29T09:23:18;5.43;;;2.42;;
8857;SDS011;4465;50.904;4.696;2022-07-29T09:25:44;4.05;;;2.28;;
8857;SDS011;4465;50.904;4.696;2022-07-29T09:28:11;3.70;;;2.08;;
8857;SDS011;4465;50.904;4.696;2022-07-29T09:30:50;7.47;;;2.45;;
8857;SDS011;4465;50.904;4.696;2022-07-29T09:33:22;4.22;;;2.10;;
8857;SDS011;4465;50.904;4.696;2022-07-29T09:35:58;4.03;;;1.73;;
8857;SDS011;4465;50.904;4.696;2022-07-29T09:38:34;3.53;;;2.15;;
8857;SDS011;4465;50.904;4.696;2022-07-29T09:41:04;5.32;;;2.25;;
8857;SDS011;4465;50.904;4.696;2022-07-29T09:43:33;3.17;;;2.00;;
8857;SDS011;4465;50.904;4.696;2022-07-29T09:46:09;7.85;;;2.33;;
8857;SDS011;4465;50.904;4.696;2022-07-29T09:48:41;5.05;;;1.70;;
8857;SDS011;4465;50.904;4.696;2022-07-29T09:51:17;3.10;;;1.73;;
8857;SDS011;4465;50.904;4.696;2022-07-29T09:53:46;3.85;;;1.70;;
8857;SDS011;4465;50.904;4.696;2022-07-29T09:56:12;6.25;;;2.00;;
8857;SDS011;4465;50.904;4.696;2022-07-29T10:01:05;4.80;;;1.90;;
8857;SDS011;4465;50.904;4.696;2022-07-29T10:03:31;4.55;;;1.95;;
8857;SDS011;4465;50.904;4.696;2022-07-29T10:06:04;5.20;;;2.08;;
8857;SDS011;4465;50.904;4.696;2022-07-29T10:08:34;3.75;;;1.75;;
8857;SDS011;4465;50.904;4.696;2022-07-29T10:11:15;3.60;;;1.70;;
8857;SDS011;4465;50.904;4.696;2022-07-29T10:13:43;5.85;;;1.50;;
8857;SDS011;4465;50.904;4.696;2022-07-29T10:16:11;3.63;;;1.45;;
8857;SDS011;4465;50.904;4.696;2022-07-29T10:18:40;5.18;;;1.80;;
8857;SDS011;4465;50.904;4.696;2022-07-29T10:21:07;2.30;;;1.50;;
8857;SDS011;4465;50.904;4.696;2022-07-29T10:26:01;3.03;;;1.75;;
8857;SDS011;4465;50.904;4.696;2022-07-29T10:28:29;3.88;;;1.33;;
8857;SDS011;4465;50.904;4.696;2022-07-29T10:31:00;5.50;;;1.70;;
8857;SDS011;4465;50.904;4.696;2022-07-29T10:33:34;4.53;;;1.65;;
8857;SDS011;4465;50.904;4.696;2022-07-29T10:36:41;3.22;;;1.80;;
8857;SDS011;4465;50.904;4.696;2022-07-29T10:39:27;1.92;;;1.40;;
8857;SDS011;4465;50.904;4.696;2022-07-29T10:42:02;4.93;;;1.80;;
8857;SDS011;4465;50.904;4.696;2022-07-29T10:44:42;4.20;;;1.77;;
8857;SDS011;4465;50.904;4.696;2022-07-29T10:47:19;4.27;;;2.03;;
8857;SDS011;4465;50.904;4.696;2022-07-29T10:49:59;3.90;;;1.85;;
8857;SDS011;4465;50.904;4.696;2022-07-29T10:53:08;3.70;;;1.50;;
8857;SDS011;4465;50.904;4.696;2022-07-29T10:55:37;7.55;;;1.90;;
8857;SDS011;4465;50.904;4.696;2022-07-29T10:58:15;5.93;;;1.88;;
8857;SDS011;4465;50.904;4.696;2022-07-29T11:00:49;5.32;;;1.73;;
8857;SDS011;4465;50.904;4.696;2022-07-29T11:06:17;5.05;;;1.90;;
8857;SDS011;4465;50.904;4.696;2022-07-29T11:08:43;5.75;;;2.30;;
8857;SDS011;4465;50.904;4.696;2022-07-29T11:13:50;3.33;;;1.90;;
8857;SDS011;4465;50.904;4.696;2022-07-29T11:16:20;3.13;;;1.40;;
8857;SDS011;4465;50.904;4.696;2022-07-29T11:21:36;5.60;;;1.55;;
8857;SDS011;4465;50.904;4.696;2022-07-29T11:24:19;8.23;;;1.55;;
8857;SDS011;4465;50.904;4.696;2022-07-29T11:29:49;4.05;;;1.70;;
8857;SDS011;4465;50.904;4.696;2022-07-29T11:32:17;4.03;;;1.83;;
8857;SDS011;4465;50.904;4.696;2022-07-29T11:34:47;3.42;;;1.77;;
8857;SDS011;4465;50.904;4.696;2022-07-29T11:37:15;5.30;;;1.60;;
8857;SDS011;4465;50.904;4.696;2022-07-29T11:39:43;4.40;;;2.00;;
8857;SDS011;4465;50.904;4.696;2022-07-29T11:47:38;3.33;;;1.75;;
8857;SDS011;4465;50.904;4.696;2022-07-29T11:50:14;3.50;;;1.60;;
8857;SDS011;4465;50.904;4.696;2022-07-29T11:52:47;3.00;;;1.60;;
8857;SDS011;4465;50.904;4.696;2022-07-29T11:55:17;3.58;;;1.30;;
8857;SDS011;4465;50.904;4.696;2022-07-29T11:57:51;2.95;;;1.42;;
8857;SDS011;4465;50.904;4.696;2022-07-29T12:00:23;3.55;;;1.63;;
8857;SDS011;4465;50.904;4.696;2022-07-29T12:02:53;5.70;;;1.77;;
8857;SDS011;4465;50.904;4.696;2022-07-29T12:05:20;2.55;;;1.40;;
8857;SDS011;4465;50.904;4.696;2022-07-29T12:07:55;5.50;;;2.10;;
8857;SDS011;4465;50.904;4.696;2022-07-29T12:10:32;2.28;;;1.30;;
8857;SDS011;4465;50.904;4.696;2022-07-29T12:12:58;6.63;;;1.70;;
8857;SDS011;4465;50.904;4.696;2022-07-29T12:15:24;3.90;;;1.52;;
8857;SDS011;4465;50.904;4.696;2022-07-29T12:17:51;4.15;;;1.60;;
8857;SDS011;4465;50.904;4.696;2022-07-29T12:22:55;6.47;;;1.80;;
8857;SDS011;4465;50.904;4.696;2022-07-29T12:25:22;5.32;;;1.55;;
8857;SDS011;4465;50.904;4.696;2022-07-29T12:28:03;5.60;;;1.48;;
8857;SDS011;4465;50.904;4.696;2022-07-29T12:30:34;3.65;;;1.38;;
8857;SDS011;4465;50.904;4.696;2022-07-29T12:33:28;4.35;;;1.50;;
8857;SDS011;4465;50.904;4.696;2022-07-29T12:35:56;3.28;;;1.42;;
8857;SDS011;4465;50.904;4.696;2022-07-29T12:38:24;5.45;;;1.63;;
8857;SDS011;4465;50.904;4.696;2022-07-29T12:40:51;9.97;;;1.80;;
8857;SDS011;4465;50.904;4.696;2022-07-29T12:43:19;2.08;;;1.33;;
8857;SDS011;4465;50.904;4.696;2022-07-29T12:45:52;4.38;;;1.40;;
8857;SDS011;4465;50.904;4.696;2022-07-29T12:48:41;2.42;;;1.58;;
8857;SDS011;4465;50.904;4.696;2022-07-29T12:51:11;4.68;;;1.63;;
8857;SDS011;4465;50.904;4.696;2022-07-29T12:54:00;4.30;;;1.63;;
8857;SDS011;4465;50.904;4.696;2022-07-29T12:56:28;4.40;;;1.60;;
8857;SDS011;4465;50.904;4.696;2022-07-29T12:58:57;5.20;;;1.50;;
8857;SDS011;4465;50.904;4.696;2022-07-29T13:01:23;7.32;;;1.60;;
8857;SDS011;4465;50.904;4.696;2022-07-29T13:03:56;4.60;;;1.85;;
8857;SDS011;4465;50.904;4.696;2022-07-29T13:09:16;3.70;;;1.17;;
8857;SDS011;4465;50.904;4.696;2022-07-29T13:11:43;4.20;;;1.50;;
8857;SDS011;4465;50.904;4.696;2022-07-29T13:17:15;3.75;;;1.58;;
8857;SDS011;4465;50.904;4.696;2022-07-29T13:22:14;5.15;;;1.50;;
8857;SDS011;4465;50.904;4.696;2022-07-29T13:24:55;5.45;;;1.80;;
8857;SDS011;4465;50.904;4.696;2022-07-29T13:27:29;6.35;;;1.75;;
8857;SDS011;4465;50.904;4.696;2022-07-29T13:29:58;4.70;;;1.70;;
8857;SDS011;4465;50.904;4.696;2022-07-29T13:32:25;5.93;;;1.48;;
8857;SDS011;4465;50.904;4.696;2022-07-29T13:34:53;7.13;;;1.60;;
8857;SDS011;4465;50.904;4.696;2022-07-29T13:37:19;3.22;;;1.50;;
8857;SDS011;4465;50.904;4.696;2022-07-29T13:39:46;5.35;;;1.70;;
8857;SDS011;4465;50.904;4.696;2022-07-29T13:42:13;2.85;;;1.33;;
8857;SDS011;4465;50.904;4.696;2022-07-29T13:44:42;3.28;;;1.40;;
8857;SDS011;4465;50.904;4.696;2022-07-29T13:47:08;3.33;;;1.60;;
8857;SDS011;4465;50.904;4.696;2022-07-29T13:49:35;4.87;;;1.80;;
8857;SDS011;4465;50.904;4.696;2022-07-29T13:52:03;5.47;;;1.63;;
8857;SDS011;4465;50.904;4.696;2022-07-29T13:54:32;3.15;;;1.75;;
8857;SDS011;4465;50.904;4.696;2022-07-29T13:57:01;3.63;;;1.50;;
8857;SDS011;4465;50.904;4.696;2022-07-29T13:59:27;6.40;;;1.83;;
8857;SDS011;4465;50.904;4.696;2022-07-29T14:01:53;4.03;;;2.00;;
8857;SDS011;4465;50.904;4.696;2022-07-29T14:04:19;3.42;;;1.77;;
8857;SDS011;4465;50.904;4.696;2022-07-29T14:06:45;6.47;;;1.90;;
8857;SDS011;4465;50.904;4.696;2022-07-29T14:09:11;5.97;;;2.10;;
8857;SDS011;4465;50.904;4.696;2022-07-29T14:11:38;3.58;;;2.10;;
8857;SDS011;4465;50.904;4.696;2022-07-29T14:14:06;8.63;;;1.98;;
8857;SDS011;4465;50.904;4.696;2022-07-29T14:16:32;6.75;;;1.75;;
8857;SDS011;4465;50.904;4.696;2022-07-29T14:18:59;4.50;;;1.70;;
8857;SDS011;4465;50.904;4.696;2022-07-29T14:21:25;3.75;;;2.20;;
8857;SDS011;4465;50.904;4.696;2022-07-29T14:23:52;8.68;;;2.25;;
8857;SDS011;4465;50.904;4.696;2022-07-29T14:28:49;3.58;;;1.92;;
8857;SDS011;4465;50.904;4.696;2022-07-29T14:31:18;6.75;;;2.67;;
8857;SDS011;4465;50.904;4.696;2022-07-29T14:33:44;5.72;;;2.70;;
8857;SDS011;4465;50.904;4.696;2022-07-29T14:36:13;5.63;;;2.92;;
8857;SDS011;4465;50.904;4.696;2022-07-29T14:38:39;5.77;;;2.70;;
8857;SDS011;4465;50.904;4.696;2022-07-29T14:41:08;4.43;;;2.10;;
8857;SDS011;4465;50.904;4.696;2022-07-29T14:43:34;4.70;;;2.42;;
8857;SDS011;4465;50.904;4.696;2022-07-29T14:46:05;10.20;;;2.92;;
8857;SDS011;4465;50.904;4.696;2022-07-29T14:48:32;4.13;;;2.47;;
8857;SDS011;4465;50.904;4.696;2022-07-29T14:50:58;6.57;;;3.08;;
8857;SDS011;4465;50.904;4.696;2022-07-29T14:53:24;11.15;;;2.50;;
8857;SDS011;4465;50.904;4.696;2022-07-29T14:55:51;8.95;;;2.60;;
8857;SDS011;4465;50.904;4.696;2022-07-29T14:58:17;6.25;;;2.35;;
8857;SDS011;4465;50.904;4.696;2022-07-29T15:00:43;7.55;;;2.45;;
8857;SDS011;4465;50.904;4.696;2022-07-29T15:03:09;6.60;;;2.28;;
8857;SDS011;4465;50.904;4.696;2022-07-29T15:05:35;5.75;;;2.53;;
8857;SDS011;4465;50.904;4.696;2022-07-29T15:08:02;12.80;;;2.58;;
8857;SDS011;4465;50.904;4.696;2022-07-29T15:10:29;5.03;;;2.20;;
8857;SDS011;4465;50.904;4.696;2022-07-29T15:12:55;4.10;;;2.47;;
8857;SDS011;4465;50.904;4.696;2022-07-29T15:15:21;4.40;;;2.20;;
8857;SDS011;4465;50.904;4.696;2022-07-29T15:17:48;6.82;;;2.67;;
8857;SDS011;4465;50.904;4.696;2022-07-29T15:20:14;6.43;;;2.47;;
8857;SDS011;4465;50.904;4.696;2022-07-29T15:22:40;7.05;;;2.50;;
8857;SDS011;4465;50.904;4.696;2022-07-29T15:25:07;5.75;;;2.15;;
8857;SDS011;4465;50.904;4.696;2022-07-29T15:27:36;5.53;;;2.47;;
8857;SDS011;4465;50.904;4.696;2022-07-29T15:30:02;4.55;;;1.80;;
8857;SDS011;4465;50.904;4.696;2022-07-29T15:32:31;7.60;;;2.25;;
8857;SDS011;4465;50.904;4.696;2022-07-29T15:34:58;6.88;;;2.78;;
8857;SDS011;4465;50.904;4.696;2022-07-29T15:37:24;5.78;;;2.15;;
8857;SDS011;4465;50.904;4.696;2022-07-29T15:39:50;6.38;;;2.55;;
8857;SDS011;4465;50.904;4.696;2022-07-29T15:42:16;7.63;;;2.40;;
8857;SDS011;4465;50.904;4.696;2022-07-29T15:44:44;3.10;;;1.90;;
8857;SDS011;4465;50.904;4.696;2022-07-29T15:47:13;4.95;;;2.30;;
8857;SDS011;4465;50.904;4.696;2022-07-29T15:49:39;7.43;;;2.03;;
8857;SDS011;4465;50.904;4.696;2022-07-29T15:52:07;4.40;;;1.90;;
8857;SDS011;4465;50.904;4.696;2022-07-29T15:54:35;3.78;;;1.60;;
8857;SDS011;4465;50.904;4.696;2022-07-29T15:57:05;6.72;;;2.00;;
8857;SDS011;4465;50.904;4.696;2022-07-29T15:59:32;6.05;;;1.85;;
8857;SDS011;4465;50.904;4.696;2022-07-29T16:01:59;6.85;;;1.90;;
8857;SDS011;4465;50.904;4.696;2022-07-29T16:04:25;8.32;;;1.85;;
8857;SDS011;4465;50.904;4.696;2022-07-29T16:06:54;3.85;;;1.85;;
8857;SDS011;4465;50.904;4.696;2022-07-29T16:09:20;6.25;;;1.70;;
8857;SDS011;4465;50.904;4.696;2022-07-29T16:11:46;4.22;;;1.80;;
8857;SDS011;4465;50.904;4.696;2022-07-29T16:14:15;4.68;;;1.90;;
8857;SDS011;4465;50.904;4.696;2022-07-29T16:16:45;3.63;;;1.75;;
8857;SDS011;4465;50.904;4.696;2022-07-29T16:19:11;5.65;;;1.90;;
8857;SDS011;4465;50.904;4.696;2022-07-29T16:21:39;4.55;;;1.50;;
8857;SDS011;4465;50.904;4.696;2022-07-29T16:24:06;6.70;;;2.05;;